ETAD

Spangdahlem Air Base Airport

Trier, Germany
METAR ETAD 201456Z AUTO 00000KT 9999 CLR 03/M04 A2998 RMK AO2 SLP162 T00321038 55007 TSNO $
Observed Flight Rules
Feb-20 @ 14:56 UTC (2 hours ago) Visual Flight Rules
Wind Visibility Clouds
Calm 10,000+ meters
  • Clear skies
Temperatures Readings
Current 3°C / 37°F
Dewpoint -4°C / 25°F
Humidity 60%
Altimeter 29.98" Hg
Pressure 1016.2 hPa
Elevation 365
METAR ETAD 201456Z AUTO 00000KT 9999 CLR 03/M04 A2998 RMK AO2 SLP162 T00321038 55007 TSNO $
Observed Flight Rules
Feb-20 @ 14:56 UTC
(2 hours ago)
VFR
Wind Visibility
Calm 10,000+ meters
Clouds
  • Clear skies
Temperature Dewpoint
3°C / 37°F -4°C / 25°F
Humidity Altimeter Pressure
60% 29.98" Hg 1016.2 hPa